sensor_id;sensor_type;location;lat;lon;timestamp;P1;durP1;ratioP1;P2;durP2;ratioP2
24745;SDS011;12845;52.042;6.838;2022-12-07T00:02:22;44.30;;;30.45;;
24745;SDS011;12845;52.042;6.838;2022-12-07T00:04:48;44.28;;;26.65;;
24745;SDS011;12845;52.042;6.838;2022-12-07T00:07:13;38.00;;;21.75;;
24745;SDS011;12845;52.042;6.838;2022-12-07T00:09:39;47.15;;;32.88;;
24745;SDS011;12845;52.042;6.838;2022-12-07T00:12:06;44.15;;;26.58;;
24745;SDS011;12845;52.042;6.838;2022-12-07T00:14:31;44.25;;;29.60;;
24745;SDS011;12845;52.042;6.838;2022-12-07T00:16:57;43.63;;;27.00;;
24745;SDS011;12845;52.042;6.838;2022-12-07T00:19:22;45.35;;;28.30;;
24745;SDS011;12845;52.042;6.838;2022-12-07T00:21:47;41.40;;;24.88;;
24745;SDS011;12845;52.042;6.838;2022-12-07T00:24:13;45.70;;;28.65;;
24745;SDS011;12845;52.042;6.838;2022-12-07T00:26:39;51.33;;;29.30;;
24745;SDS011;12845;52.042;6.838;2022-12-07T00:29:06;44.45;;;29.55;;
24745;SDS011;12845;52.042;6.838;2022-12-07T00:31:36;47.67;;;35.42;;
24745;SDS011;12845;52.042;6.838;2022-12-07T00:34:04;42.42;;;26.75;;
24745;SDS011;12845;52.042;6.838;2022-12-07T00:36:30;45.40;;;29.27;;
24745;SDS011;12845;52.042;6.838;2022-12-07T00:38:57;48.38;;;31.45;;
24745;SDS011;12845;52.042;6.838;2022-12-07T00:41:24;38.17;;;24.92;;
24745;SDS011;12845;52.042;6.838;2022-12-07T00:43:50;45.85;;;32.78;;
24745;SDS011;12845;52.042;6.838;2022-12-07T00:46:16;41.33;;;25.13;;
24745;SDS011;12845;52.042;6.838;2022-12-07T00:48:43;44.28;;;29.42;;
24745;SDS011;12845;52.042;6.838;2022-12-07T00:51:09;44.20;;;29.67;;
24745;SDS011;12845;52.042;6.838;2022-12-07T00:53:36;39.70;;;23.63;;
24745;SDS011;12845;52.042;6.838;2022-12-07T00:56:09;44.65;;;29.08;;
24745;SDS011;12845;52.042;6.838;2022-12-07T00:58:37;45.10;;;30.17;;
24745;SDS011;12845;52.042;6.838;2022-12-07T01:01:03;43.55;;;25.55;;
24745;SDS011;12845;52.042;6.838;2022-12-07T01:03:30;38.78;;;23.20;;
24745;SDS011;12845;52.042;6.838;2022-12-07T01:05:56;42.90;;;29.25;;
24745;SDS011;12845;52.042;6.838;2022-12-07T01:08:22;39.45;;;26.05;;
24745;SDS011;12845;52.042;6.838;2022-12-07T01:10:47;41.33;;;30.80;;
24745;SDS011;12845;52.042;6.838;2022-12-07T01:13:13;43.40;;;28.20;;
24745;SDS011;12845;52.042;6.838;2022-12-07T01:15:42;47.63;;;33.20;;
24745;SDS011;12845;52.042;6.838;2022-12-07T01:18:09;41.65;;;28.27;;
24745;SDS011;12845;52.042;6.838;2022-12-07T01:20:35;42.60;;;26.30;;
24745;SDS011;12845;52.042;6.838;2022-12-07T01:23:01;45.25;;;32.25;;
24745;SDS011;12845;52.042;6.838;2022-12-07T01:25:26;46.30;;;31.77;;
24745;SDS011;12845;52.042;6.838;2022-12-07T01:27:51;41.80;;;24.75;;
24745;SDS011;12845;52.042;6.838;2022-12-07T01:30:17;46.15;;;30.60;;
24745;SDS011;12845;52.042;6.838;2022-12-07T01:32:42;42.03;;;28.85;;
24745;SDS011;12845;52.042;6.838;2022-12-07T01:35:07;40.97;;;26.23;;
24745;SDS011;12845;52.042;6.838;2022-12-07T01:37:36;47.55;;;28.08;;
24745;SDS011;12845;52.042;6.838;2022-12-07T01:40:02;39.08;;;25.60;;
24745;SDS011;12845;52.042;6.838;2022-12-07T01:42:28;49.80;;;33.20;;
24745;SDS011;12845;52.042;6.838;2022-12-07T01:47:56;45.40;;;30.35;;
24745;SDS011;12845;52.042;6.838;2022-12-07T01:50:24;44.45;;;32.38;;
24745;SDS011;12845;52.042;6.838;2022-12-07T01:52:53;49.85;;;31.05;;
24745;SDS011;12845;52.042;6.838;2022-12-07T01:55:21;42.83;;;28.63;;
24745;SDS011;12845;52.042;6.838;2022-12-07T01:57:48;40.47;;;24.52;;
24745;SDS011;12845;52.042;6.838;2022-12-07T02:00:16;39.55;;;24.70;;
24745;SDS011;12845;52.042;6.838;2022-12-07T02:02:49;43.60;;;30.02;;
24745;SDS011;12845;52.042;6.838;2022-12-07T02:05:20;43.33;;;28.67;;
24745;SDS011;12845;52.042;6.838;2022-12-07T02:07:47;39.08;;;24.58;;
24745;SDS011;12845;52.042;6.838;2022-12-07T02:10:17;42.22;;;25.48;;
24745;SDS011;12845;52.042;6.838;2022-12-07T02:12:46;41.15;;;24.30;;
24745;SDS011;12845;52.042;6.838;2022-12-07T02:15:12;39.10;;;23.73;;
24745;SDS011;12845;52.042;6.838;2022-12-07T02:17:48;35.05;;;20.85;;
24745;SDS011;12845;52.042;6.838;2022-12-07T02:20:23;33.15;;;18.95;;
24745;SDS011;12845;52.042;6.838;2022-12-07T02:31:31;41.50;;;28.55;;
24745;SDS011;12845;52.042;6.838;2022-12-07T02:33:58;34.10;;;22.45;;
24745;SDS011;12845;52.042;6.838;2022-12-07T02:36:28;35.63;;;23.58;;
24745;SDS011;12845;52.042;6.838;2022-12-07T02:38:56;40.33;;;26.50;;
24745;SDS011;12845;52.042;6.838;2022-12-07T02:41:27;35.00;;;20.85;;
24745;SDS011;12845;52.042;6.838;2022-12-07T02:43:54;39.00;;;24.08;;
24745;SDS011;12845;52.042;6.838;2022-12-07T02:46:27;41.85;;;25.88;;
24745;SDS011;12845;52.042;6.838;2022-12-07T02:48:56;40.55;;;25.13;;
24745;SDS011;12845;52.042;6.838;2022-12-07T02:51:24;37.83;;;27.50;;
24745;SDS011;12845;52.042;6.838;2022-12-07T02:53:50;36.35;;;22.95;;
24745;SDS011;12845;52.042;6.838;2022-12-07T03:01:53;31.17;;;17.75;;
24745;SDS011;12845;52.042;6.838;2022-12-07T03:04:32;36.05;;;24.52;;
24745;SDS011;12845;52.042;6.838;2022-12-07T03:12:44;28.10;;;14.93;;
24745;SDS011;12845;52.042;6.838;2022-12-07T03:15:26;30.88;;;17.02;;
24745;SDS011;12845;52.042;6.838;2022-12-07T03:17:52;29.13;;;19.15;;
24745;SDS011;12845;52.042;6.838;2022-12-07T03:20:21;32.45;;;22.15;;
24745;SDS011;12845;52.042;6.838;2022-12-07T03:22:50;30.17;;;17.38;;
24745;SDS011;12845;52.042;6.838;2022-12-07T03:25:16;28.50;;;18.00;;
24745;SDS011;12845;52.042;6.838;2022-12-07T03:27:48;29.30;;;17.23;;
24745;SDS011;12845;52.042;6.838;2022-12-07T03:30:18;27.88;;;15.65;;
24745;SDS011;12845;52.042;6.838;2022-12-07T03:35:27;32.47;;;20.23;;
24745;SDS011;12845;52.042;6.838;2022-12-07T03:43:23;32.08;;;17.05;;
24745;SDS011;12845;52.042;6.838;2022-12-07T03:46:15;25.85;;;15.95;;
24745;SDS011;12845;52.042;6.838;2022-12-07T03:48:46;26.00;;;14.93;;
24745;SDS011;12845;52.042;6.838;2022-12-07T03:53:43;21.67;;;13.10;;
24745;SDS011;12845;52.042;6.838;2022-12-07T03:56:13;28.35;;;17.45;;
24745;SDS011;12845;52.042;6.838;2022-12-07T03:58:39;22.88;;;12.98;;
24745;SDS011;12845;52.042;6.838;2022-12-07T04:01:05;20.65;;;12.48;;
24745;SDS011;12845;52.042;6.838;2022-12-07T04:03:31;28.92;;;11.98;;
24745;SDS011;12845;52.042;6.838;2022-12-07T04:05:56;25.48;;;14.20;;
24745;SDS011;12845;52.042;6.838;2022-12-07T04:08:22;21.80;;;13.40;;
24745;SDS011;12845;52.042;6.838;2022-12-07T04:10:48;27.60;;;12.77;;
24745;SDS011;12845;52.042;6.838;2022-12-07T04:13:13;22.63;;;12.43;;
24745;SDS011;12845;52.042;6.838;2022-12-07T04:15:38;27.23;;;14.10;;
24745;SDS011;12845;52.042;6.838;2022-12-07T04:18:04;23.17;;;11.40;;
24745;SDS011;12845;52.042;6.838;2022-12-07T04:20:29;24.70;;;15.52;;
24745;SDS011;12845;52.042;6.838;2022-12-07T04:22:54;21.00;;;12.38;;
24745;SDS011;12845;52.042;6.838;2022-12-07T04:25:20;24.75;;;11.82;;
24745;SDS011;12845;52.042;6.838;2022-12-07T04:27:45;22.17;;;14.32;;
24745;SDS011;12845;52.042;6.838;2022-12-07T04:30:10;20.80;;;12.27;;
24745;SDS011;12845;52.042;6.838;2022-12-07T04:32:36;20.88;;;11.60;;
24745;SDS011;12845;52.042;6.838;2022-12-07T04:35:02;21.35;;;12.27;;
24745;SDS011;12845;52.042;6.838;2022-12-07T04:37:28;22.27;;;14.50;;
24745;SDS011;12845;52.042;6.838;2022-12-07T04:39:53;20.27;;;11.35;;
24745;SDS011;12845;52.042;6.838;2022-12-07T04:42:18;25.02;;;13.38;;
24745;SDS011;12845;52.042;6.838;2022-12-07T04:44:44;22.63;;;11.73;;
24745;SDS011;12845;52.042;6.838;2022-12-07T04:47:09;19.55;;;11.82;;
24745;SDS011;12845;52.042;6.838;2022-12-07T04:49:34;24.23;;;12.80;;
24745;SDS011;12845;52.042;6.838;2022-12-07T04:52:00;16.30;;;8.77;;
24745;SDS011;12845;52.042;6.838;2022-12-07T04:54:25;19.83;;;10.75;;
24745;SDS011;12845;52.042;6.838;2022-12-07T04:56:51;20.75;;;10.65;;
24745;SDS011;12845;52.042;6.838;2022-12-07T04:59:16;18.60;;;10.88;;
24745;SDS011;12845;52.042;6.838;2022-12-07T05:01:42;22.23;;;12.07;;
24745;SDS011;12845;52.042;6.838;2022-12-07T05:04:08;17.65;;;10.10;;
24745;SDS011;12845;52.042;6.838;2022-12-07T05:06:33;16.50;;;9.45;;
24745;SDS011;12845;52.042;6.838;2022-12-07T05:08:59;13.40;;;6.55;;
24745;SDS011;12845;52.042;6.838;2022-12-07T05:11:24;16.92;;;8.15;;
24745;SDS011;12845;52.042;6.838;2022-12-07T05:14:09;13.60;;;7.18;;
24745;SDS011;12845;52.042;6.838;2022-12-07T05:16:39;15.70;;;8.60;;
24745;SDS011;12845;52.042;6.838;2022-12-07T05:19:05;16.50;;;8.30;;
24745;SDS011;12845;52.042;6.838;2022-12-07T05:21:31;15.80;;;8.48;;
24745;SDS011;12845;52.042;6.838;2022-12-07T05:23:56;20.25;;;9.10;;
24745;SDS011;12845;52.042;6.838;2022-12-07T05:26:22;15.60;;;9.68;;
24745;SDS011;12845;52.042;6.838;2022-12-07T05:28:53;15.27;;;9.50;;
24745;SDS011;12845;52.042;6.838;2022-12-07T05:31:20;14.48;;;7.40;;
24745;SDS011;12845;52.042;6.838;2022-12-07T05:33:46;12.80;;;7.47;;
24745;SDS011;12845;52.042;6.838;2022-12-07T05:36:11;17.40;;;7.10;;
24745;SDS011;12845;52.042;6.838;2022-12-07T05:38:37;18.70;;;5.97;;
24745;SDS011;12845;52.042;6.838;2022-12-07T05:41:03;13.25;;;7.30;;
24745;SDS011;12845;52.042;6.838;2022-12-07T05:43:30;14.95;;;6.97;;
24745;SDS011;12845;52.042;6.838;2022-12-07T05:45:56;15.88;;;9.10;;
24745;SDS011;12845;52.042;6.838;2022-12-07T05:48:21;17.38;;;7.70;;
24745;SDS011;12845;52.042;6.838;2022-12-07T05:50:47;13.88;;;7.70;;
24745;SDS011;12845;52.042;6.838;2022-12-07T05:53:13;14.80;;;8.00;;
24745;SDS011;12845;52.042;6.838;2022-12-07T05:55:38;15.50;;;6.65;;
24745;SDS011;12845;52.042;6.838;2022-12-07T05:58:03;17.42;;;6.78;;
24745;SDS011;12845;52.042;6.838;2022-12-07T06:00:47;15.63;;;8.18;;
24745;SDS011;12845;52.042;6.838;2022-12-07T06:03:12;14.98;;;7.55;;
24745;SDS011;12845;52.042;6.838;2022-12-07T06:05:38;15.88;;;8.15;;
24745;SDS011;12845;52.042;6.838;2022-12-07T06:08:03;13.98;;;6.78;;
24745;SDS011;12845;52.042;6.838;2022-12-07T06:10:28;16.70;;;5.75;;
24745;SDS011;12845;52.042;6.838;2022-12-07T06:12:54;18.10;;;7.43;;
24745;SDS011;12845;52.042;6.838;2022-12-07T06:15:19;11.25;;;6.47;;
24745;SDS011;12845;52.042;6.838;2022-12-07T06:17:44;12.20;;;7.75;;
24745;SDS011;12845;52.042;6.838;2022-12-07T06:20:10;14.07;;;7.07;;
24745;SDS011;12845;52.042;6.838;2022-12-07T06:22:35;11.77;;;7.38;;
24745;SDS011;12845;52.042;6.838;2022-12-07T06:25:00;18.60;;;10.98;;
24745;SDS011;12845;52.042;6.838;2022-12-07T06:27:26;22.08;;;10.77;;
24745;SDS011;12845;52.042;6.838;2022-12-07T06:29:52;19.73;;;9.75;;
24745;SDS011;12845;52.042;6.838;2022-12-07T06:32:17;15.63;;;9.90;;
24745;SDS011;12845;52.042;6.838;2022-12-07T06:34:42;19.77;;;9.70;;
24745;SDS011;12845;52.042;6.838;2022-12-07T06:37:07;21.92;;;7.75;;
24745;SDS011;12845;52.042;6.838;2022-12-07T06:39:33;23.60;;;10.75;;
24745;SDS011;12845;52.042;6.838;2022-12-07T06:41:58;23.48;;;12.63;;
24745;SDS011;12845;52.042;6.838;2022-12-07T06:44:24;12.98;;;6.55;;
24745;SDS011;12845;52.042;6.838;2022-12-07T06:46:50;12.73;;;5.97;;
24745;SDS011;12845;52.042;6.838;2022-12-07T06:49:16;13.65;;;7.70;;
24745;SDS011;12845;52.042;6.838;2022-12-07T06:51:42;13.20;;;6.80;;
24745;SDS011;12845;52.042;6.838;2022-12-07T06:54:11;25.40;;;11.05;;
24745;SDS011;12845;52.042;6.838;2022-12-07T06:56:38;22.65;;;11.80;;
24745;SDS011;12845;52.042;6.838;2022-12-07T06:59:04;14.43;;;7.40;;
24745;SDS011;12845;52.042;6.838;2022-12-07T07:01:31;21.55;;;8.13;;
24745;SDS011;12845;52.042;6.838;2022-12-07T07:03:56;21.15;;;9.55;;
24745;SDS011;12845;52.042;6.838;2022-12-07T07:06:22;15.98;;;7.90;;
24745;SDS011;12845;52.042;6.838;2022-12-07T07:08:47;17.27;;;10.30;;
24745;SDS011;12845;52.042;6.838;2022-12-07T07:11:12;19.17;;;12.57;;
24745;SDS011;12845;52.042;6.838;2022-12-07T07:13:38;21.25;;;12.95;;
24745;SDS011;12845;52.042;6.838;2022-12-07T07:16:04;19.50;;;11.27;;
24745;SDS011;12845;52.042;6.838;2022-12-07T07:18:30;15.70;;;10.13;;
24745;SDS011;12845;52.042;6.838;2022-12-07T07:20:55;18.60;;;11.30;;
24745;SDS011;12845;52.042;6.838;2022-12-07T07:23:21;14.73;;;9.07;;
24745;SDS011;12845;52.042;6.838;2022-12-07T07:25:47;15.27;;;8.32;;
24745;SDS011;12845;52.042;6.838;2022-12-07T07:28:12;15.93;;;7.38;;
24745;SDS011;12845;52.042;6.838;2022-12-07T07:30:38;21.55;;;9.75;;
24745;SDS011;12845;52.042;6.838;2022-12-07T07:33:03;20.05;;;8.82;;
24745;SDS011;12845;52.042;6.838;2022-12-07T07:35:30;14.90;;;9.18;;
24745;SDS011;12845;52.042;6.838;2022-12-07T07:37:55;14.23;;;9.48;;
24745;SDS011;12845;52.042;6.838;2022-12-07T07:40:20;15.82;;;9.68;;
24745;SDS011;12845;52.042;6.838;2022-12-07T07:42:49;16.35;;;10.15;;
24745;SDS011;12845;52.042;6.838;2022-12-07T07:45:15;15.77;;;9.25;;
24745;SDS011;12845;52.042;6.838;2022-12-07T07:47:40;20.67;;;10.10;;
24745;SDS011;12845;52.042;6.838;2022-12-07T07:50:06;25.65;;;13.32;;
24745;SDS011;12845;52.042;6.838;2022-12-07T07:52:31;22.42;;;13.18;;
24745;SDS011;12845;52.042;6.838;2022-12-07T07:54:57;25.00;;;10.43;;
24745;SDS011;12845;52.042;6.838;2022-12-07T07:57:22;27.02;;;13.02;;
24745;SDS011;12845;52.042;6.838;2022-12-07T07:59:47;24.05;;;9.95;;
24745;SDS011;12845;52.042;6.838;2022-12-07T08:02:13;19.92;;;10.50;;
24745;SDS011;12845;52.042;6.838;2022-12-07T08:04:40;18.40;;;11.25;;
24745;SDS011;12845;52.042;6.838;2022-12-07T08:07:05;18.45;;;10.82;;
24745;SDS011;12845;52.042;6.838;2022-12-07T08:09:30;23.90;;;11.30;;
24745;SDS011;12845;52.042;6.838;2022-12-07T08:11:56;22.67;;;11.35;;
24745;SDS011;12845;52.042;6.838;2022-12-07T08:14:22;19.65;;;9.90;;
24745;SDS011;12845;52.042;6.838;2022-12-07T08:16:47;21.55;;;11.27;;
24745;SDS011;12845;52.042;6.838;2022-12-07T08:19:12;14.45;;;6.22;;
24745;SDS011;12845;52.042;6.838;2022-12-07T08:21:38;20.88;;;11.63;;
24745;SDS011;12845;52.042;6.838;2022-12-07T08:24:03;17.38;;;9.52;;
24745;SDS011;12845;52.042;6.838;2022-12-07T08:26:29;19.88;;;10.80;;
24745;SDS011;12845;52.042;6.838;2022-12-07T08:28:54;20.40;;;8.90;;
24745;SDS011;12845;52.042;6.838;2022-12-07T08:31:19;20.83;;;11.18;;
24745;SDS011;12845;52.042;6.838;2022-12-07T08:33:45;18.88;;;10.00;;
24745;SDS011;12845;52.042;6.838;2022-12-07T08:36:12;19.02;;;9.52;;
24745;SDS011;12845;52.042;6.838;2022-12-07T08:38:39;17.40;;;9.98;;
24745;SDS011;12845;52.042;6.838;2022-12-07T08:41:05;14.15;;;7.35;;
24745;SDS011;12845;52.042;6.838;2022-12-07T08:43:30;13.82;;;8.95;;
24745;SDS011;12845;52.042;6.838;2022-12-07T08:48:50;18.25;;;10.00;;
24745;SDS011;12845;52.042;6.838;2022-12-07T08:51:17;20.83;;;10.03;;
24745;SDS011;12845;52.042;6.838;2022-12-07T08:53:42;19.65;;;10.00;;
24745;SDS011;12845;52.042;6.838;2022-12-07T08:56:08;18.30;;;11.15;;
24745;SDS011;12845;52.042;6.838;2022-12-07T08:58:34;15.65;;;8.40;;
24745;SDS011;12845;52.042;6.838;2022-12-07T09:01:00;15.25;;;6.30;;
24745;SDS011;12845;52.042;6.838;2022-12-07T09:03:25;12.25;;;6.00;;
24745;SDS011;12845;52.042;6.838;2022-12-07T09:05:51;18.85;;;7.85;;
24745;SDS011;12845;52.042;6.838;2022-12-07T09:08:17;16.67;;;8.30;;
24745;SDS011;12845;52.042;6.838;2022-12-07T09:10:43;17.17;;;10.00;;
24745;SDS011;12845;52.042;6.838;2022-12-07T09:13:08;14.93;;;7.18;;
24745;SDS011;12845;52.042;6.838;2022-12-07T09:15:33;17.50;;;8.90;;
24745;SDS011;12845;52.042;6.838;2022-12-07T09:17:59;13.10;;;6.78;;
24745;SDS011;12845;52.042;6.838;2022-12-07T09:20:24;15.05;;;9.02;;
24745;SDS011;12845;52.042;6.838;2022-12-07T09:22:49;13.88;;;6.30;;
24745;SDS011;12845;52.042;6.838;2022-12-07T09:25:15;17.35;;;7.30;;
24745;SDS011;12845;52.042;6.838;2022-12-07T09:27:40;11.55;;;6.13;;
24745;SDS011;12845;52.042;6.838;2022-12-07T09:30:06;9.18;;;5.30;;
24745;SDS011;12845;52.042;6.838;2022-12-07T09:32:31;13.15;;;4.28;;
24745;SDS011;12845;52.042;6.838;2022-12-07T09:34:56;14.75;;;6.63;;
24745;SDS011;12845;52.042;6.838;2022-12-07T09:37:22;11.75;;;6.38;;
24745;SDS011;12845;52.042;6.838;2022-12-07T09:39:47;10.18;;;4.50;;
24745;SDS011;12845;52.042;6.838;2022-12-07T09:42:47;11.98;;;5.60;;
24745;SDS011;12845;52.042;6.838;2022-12-07T09:45:11;16.75;;;4.68;;
24745;SDS011;12845;52.042;6.838;2022-12-07T09:47:40;14.65;;;5.85;;
24745;SDS011;12845;52.042;6.838;2022-12-07T09:50:10;9.40;;;5.60;;
24745;SDS011;12845;52.042;6.838;2022-12-07T09:52:38;13.25;;;5.72;;
24745;SDS011;12845;52.042;6.838;2022-12-07T09:55:07;12.43;;;5.55;;
24745;SDS011;12845;52.042;6.838;2022-12-07T09:57:36;9.20;;;3.75;;
24745;SDS011;12845;52.042;6.838;2022-12-07T10:00:04;12.05;;;4.95;;
24745;SDS011;12845;52.042;6.838;2022-12-07T10:02:36;10.68;;;4.38;;
24745;SDS011;12845;52.042;6.838;2022-12-07T10:05:03;8.75;;;4.70;;
24745;SDS011;12845;52.042;6.838;2022-12-07T10:07:29;11.63;;;5.13;;
24745;SDS011;12845;52.042;6.838;2022-12-07T10:09:54;9.38;;;3.78;;
24745;SDS011;12845;52.042;6.838;2022-12-07T10:12:19;12.65;;;5.20;;
24745;SDS011;12845;52.042;6.838;2022-12-07T10:15:01;12.23;;;3.95;;
24745;SDS011;12845;52.042;6.838;2022-12-07T10:20:13;13.43;;;4.88;;
24745;SDS011;12845;52.042;6.838;2022-12-07T10:22:39;11.38;;;5.10;;
24745;SDS011;12845;52.042;6.838;2022-12-07T10:25:19;11.73;;;5.13;;
24745;SDS011;12845;52.042;6.838;2022-12-07T10:27:57;9.93;;;4.40;;
24745;SDS011;12845;52.042;6.838;2022-12-07T10:30:46;14.48;;;5.07;;
24745;SDS011;12845;52.042;6.838;2022-12-07T10:33:26;11.13;;;4.38;;
24745;SDS011;12845;52.042;6.838;2022-12-07T10:36:00;8.65;;;4.60;;
24745;SDS011;12845;52.042;6.838;2022-12-07T10:38:27;12.52;;;6.03;;
24745;SDS011;12845;52.042;6.838;2022-12-07T10:41:07;10.70;;;4.68;;
24745;SDS011;12845;52.042;6.838;2022-12-07T10:43:33;8.32;;;3.88;;
24745;SDS011;12845;52.042;6.838;2022-12-07T10:46:17;6.53;;;3.55;;
24745;SDS011;12845;52.042;6.838;2022-12-07T10:51:33;7.50;;;2.63;;
24745;SDS011;12845;52.042;6.838;2022-12-07T10:59:41;8.20;;;3.10;;
24745;SDS011;12845;52.042;6.838;2022-12-07T11:02:25;10.82;;;2.97;;
24745;SDS011;12845;52.042;6.838;2022-12-07T11:05:14;9.13;;;3.38;;
24745;SDS011;12845;52.042;6.838;2022-12-07T11:07:43;8.82;;;2.17;;
24745;SDS011;12845;52.042;6.838;2022-12-07T11:18:14;7.65;;;2.33;;
24745;SDS011;12845;52.042;6.838;2022-12-07T11:23:21;6.43;;;2.42;;
24745;SDS011;12845;52.042;6.838;2022-12-07T11:25:52;8.90;;;2.20;;
24745;SDS011;12845;52.042;6.838;2022-12-07T11:31:25;8.75;;;2.67;;
24745;SDS011;12845;52.042;6.838;2022-12-07T11:33:59;6.13;;;2.28;;
24745;SDS011;12845;52.042;6.838;2022-12-07T11:36:43;6.50;;;1.90;;
24745;SDS011;12845;52.042;6.838;2022-12-07T11:41:47;5.82;;;1.50;;
24745;SDS011;12845;52.042;6.838;2022-12-07T11:47:05;4.38;;;1.90;;
24745;SDS011;12845;52.042;6.838;2022-12-07T11:49:37;7.05;;;2.20;;
24745;SDS011;12845;52.042;6.838;2022-12-07T11:52:05;8.50;;;2.05;;
24745;SDS011;12845;52.042;6.838;2022-12-07T11:54:35;9.18;;;2.70;;
24745;SDS011;12845;52.042;6.838;2022-12-07T11:57:04;7.57;;;2.42;;
24745;SDS011;12845;52.042;6.838;2022-12-07T11:59:38;7.65;;;2.55;;
24745;SDS011;12845;52.042;6.838;2022-12-07T12:02:19;7.05;;;1.95;;
24745;SDS011;12845;52.042;6.838;2022-12-07T12:04:56;9.48;;;2.50;;
24745;SDS011;12845;52.042;6.838;2022-12-07T12:07:24;6.78;;;2.35;;
24745;SDS011;12845;52.042;6.838;2022-12-07T12:09:56;8.73;;;1.90;;
24745;SDS011;12845;52.042;6.838;2022-12-07T12:12:27;8.23;;;2.22;;
24745;SDS011;12845;52.042;6.838;2022-12-07T12:20:16;11.43;;;4.15;;
24745;SDS011;12845;52.042;6.838;2022-12-07T12:22:55;9.73;;;3.00;;
24745;SDS011;12845;52.042;6.838;2022-12-07T12:25:30;6.38;;;2.70;;
24745;SDS011;12845;52.042;6.838;2022-12-07T12:28:02;5.18;;;1.90;;
24745;SDS011;12845;52.042;6.838;2022-12-07T12:30:35;8.10;;;2.22;;
24745;SDS011;12845;52.042;6.838;2022-12-07T12:33:13;10.55;;;2.90;;
24745;SDS011;12845;52.042;6.838;2022-12-07T12:35:45;13.80;;;4.45;;
24745;SDS011;12845;52.042;6.838;2022-12-07T12:41:01;10.10;;;3.40;;
24745;SDS011;12845;52.042;6.838;2022-12-07T12:43:40;12.32;;;4.13;;
24745;SDS011;12845;52.042;6.838;2022-12-07T12:48:52;6.50;;;1.98;;
24745;SDS011;12845;52.042;6.838;2022-12-07T12:51:37;9.23;;;3.03;;
24745;SDS011;12845;52.042;6.838;2022-12-07T12:54:04;7.55;;;2.45;;
24745;SDS011;12845;52.042;6.838;2022-12-07T12:59:22;7.05;;;2.58;;
24745;SDS011;12845;52.042;6.838;2022-12-07T13:01:55;5.50;;;1.80;;
24745;SDS011;12845;52.042;6.838;2022-12-07T13:04:25;8.70;;;2.10;;
24745;SDS011;12845;52.042;6.838;2022-12-07T13:06:54;7.97;;;3.28;;
24745;SDS011;12845;52.042;6.838;2022-12-07T13:09:21;4.88;;;1.15;;
24745;SDS011;12845;52.042;6.838;2022-12-07T13:11:47;4.63;;;1.92;;
24745;SDS011;12845;52.042;6.838;2022-12-07T13:17:10;9.30;;;2.97;;
24745;SDS011;12845;52.042;6.838;2022-12-07T13:22:53;8.95;;;2.40;;
24745;SDS011;12845;52.042;6.838;2022-12-07T13:25:07;5.05;;;2.30;;
24745;SDS011;12845;52.042;6.838;2022-12-07T13:27:32;8.13;;;4.10;;
24745;SDS011;12845;52.042;6.838;2022-12-07T13:30:11;9.98;;;2.08;;
24745;SDS011;12845;52.042;6.838;2022-12-07T13:32:37;6.60;;;2.20;;
24745;SDS011;12845;52.042;6.838;2022-12-07T13:35:26;8.20;;;2.55;;
24745;SDS011;12845;52.042;6.838;2022-12-07T13:37:56;10.80;;;3.22;;
24745;SDS011;12845;52.042;6.838;2022-12-07T13:40:22;9.10;;;2.53;;
24745;SDS011;12845;52.042;6.838;2022-12-07T13:42:48;10.70;;;4.05;;
24745;SDS011;12845;52.042;6.838;2022-12-07T13:45:27;8.57;;;3.25;;
24745;SDS011;12845;52.042;6.838;2022-12-07T13:50:54;23.80;;;12.20;;
24745;SDS011;12845;52.042;6.838;2022-12-07T13:53:19;12.07;;;4.30;;
24745;SDS011;12845;52.042;6.838;2022-12-07T13:55:46;8.43;;;3.33;;
24745;SDS011;12845;52.042;6.838;2022-12-07T13:58:11;26.23;;;10.73;;
24745;SDS011;12845;52.042;6.838;2022-12-07T14:00:37;13.25;;;2.75;;
24745;SDS011;12845;52.042;6.838;2022-12-07T14:05:44;9.88;;;4.13;;
24745;SDS011;12845;52.042;6.838;2022-12-07T14:10:52;9.13;;;3.55;;
24745;SDS011;12845;52.042;6.838;2022-12-07T14:13:36;7.38;;;3.25;;
24745;SDS011;12845;52.042;6.838;2022-12-07T14:16:05;27.67;;;13.07;;
24745;SDS011;12845;52.042;6.838;2022-12-07T14:18:42;11.82;;;4.85;;
24745;SDS011;12845;52.042;6.838;2022-12-07T14:23:36;14.82;;;5.78;;
24745;SDS011;12845;52.042;6.838;2022-12-07T14:26:07;12.25;;;4.47;;
24745;SDS011;12845;52.042;6.838;2022-12-07T14:28:34;7.70;;;2.60;;
24745;SDS011;12845;52.042;6.838;2022-12-07T14:31:01;14.07;;;4.63;;
24745;SDS011;12845;52.042;6.838;2022-12-07T14:33:27;9.15;;;3.60;;
24745;SDS011;12845;52.042;6.838;2022-12-07T14:35:53;8.77;;;4.75;;
24745;SDS011;12845;52.042;6.838;2022-12-07T14:38:23;18.92;;;12.90;;
24745;SDS011;12845;52.042;6.838;2022-12-07T14:40:49;8.45;;;3.78;;
24745;SDS011;12845;52.042;6.838;2022-12-07T14:43:17;6.50;;;2.97;;
24745;SDS011;12845;52.042;6.838;2022-12-07T14:45:43;10.93;;;4.65;;
24745;SDS011;12845;52.042;6.838;2022-12-07T14:48:13;10.27;;;3.60;;
24745;SDS011;12845;52.042;6.838;2022-12-07T14:50:43;6.38;;;2.50;;
24745;SDS011;12845;52.042;6.838;2022-12-07T14:53:10;10.27;;;2.90;;
24745;SDS011;12845;52.042;6.838;2022-12-07T14:55:38;5.32;;;2.15;;
24745;SDS011;12845;52.042;6.838;2022-12-07T14:58:03;10.00;;;3.70;;
24745;SDS011;12845;52.042;6.838;2022-12-07T15:00:29;16.10;;;4.40;;
24745;SDS011;12845;52.042;6.838;2022-12-07T15:02:55;14.55;;;6.03;;
24745;SDS011;12845;52.042;6.838;2022-12-07T15:05:21;8.50;;;2.05;;
24745;SDS011;12845;52.042;6.838;2022-12-07T15:07:47;10.25;;;2.72;;
24745;SDS011;12845;52.042;6.838;2022-12-07T15:10:17;7.72;;;2.95;;
24745;SDS011;12845;52.042;6.838;2022-12-07T15:12:43;12.98;;;5.75;;
24745;SDS011;12845;52.042;6.838;2022-12-07T15:15:09;7.70;;;2.58;;
24745;SDS011;12845;52.042;6.838;2022-12-07T15:17:34;11.43;;;6.07;;
24745;SDS011;12845;52.042;6.838;2022-12-07T15:20:00;7.72;;;2.78;;
24745;SDS011;12845;52.042;6.838;2022-12-07T15:22:25;11.80;;;5.07;;
24745;SDS011;12845;52.042;6.838;2022-12-07T15:24:51;8.15;;;2.65;;
24745;SDS011;12845;52.042;6.838;2022-12-07T15:27:16;8.95;;;3.83;;
24745;SDS011;12845;52.042;6.838;2022-12-07T15:29:42;20.60;;;8.05;;
24745;SDS011;12845;52.042;6.838;2022-12-07T15:32:07;9.73;;;4.78;;
24745;SDS011;12845;52.042;6.838;2022-12-07T15:34:33;12.85;;;3.10;;
24745;SDS011;12845;52.042;6.838;2022-12-07T15:36:59;8.25;;;4.30;;
24745;SDS011;12845;52.042;6.838;2022-12-07T15:39:24;9.80;;;4.13;;
24745;SDS011;12845;52.042;6.838;2022-12-07T15:41:50;11.02;;;3.90;;
24745;SDS011;12845;52.042;6.838;2022-12-07T15:44:15;11.85;;;4.43;;
24745;SDS011;12845;52.042;6.838;2022-12-07T15:46:59;13.68;;;5.20;;
24745;SDS011;12845;52.042;6.838;2022-12-07T15:49:25;8.77;;;4.25;;
24745;SDS011;12845;52.042;6.838;2022-12-07T15:51:51;10.10;;;3.97;;
24745;SDS011;12845;52.042;6.838;2022-12-07T15:54:21;9.43;;;4.43;;
24745;SDS011;12845;52.042;6.838;2022-12-07T15:56:46;10.35;;;4.80;;
24745;SDS011;12845;52.042;6.838;2022-12-07T15:59:12;11.35;;;5.68;;
24745;SDS011;12845;52.042;6.838;2022-12-07T16:01:37;35.20;;;20.10;;
24745;SDS011;12845;52.042;6.838;2022-12-07T16:04:03;12.13;;;6.97;;
24745;SDS011;12845;52.042;6.838;2022-12-07T16:06:28;12.40;;;8.57;;
24745;SDS011;12845;52.042;6.838;2022-12-07T16:08:53;15.50;;;6.03;;
24745;SDS011;12845;52.042;6.838;2022-12-07T16:11:19;13.20;;;6.90;;
24745;SDS011;12845;52.042;6.838;2022-12-07T16:13:44;13.70;;;6.78;;